首页
METAR-TAF:

METAR-TAF

机场 :

Robins Air Force Base

Warner Robins, 喬治亞, 美国

纬度: 32-38N, 经度: 083-36W, 海拔: 90米

当前天气观测

该预报发布于15分钟前的10:41 UTC
风速6节,风向
温度 21°C
湿度 100%
气压 1016 hPa
能見度: 9.7公里
少量云层高于1500英尺
多云层高于2500英尺
轻雾

METAR: KWRB 261041Z 08006KT 6SM BR FEW015 BKN025 21/21 A3001 RMK AO2A DZB03E09RAB09E26DZB26E41 SLP163 $

时间: 06:56 (10:56 UTC)

预报

该预报发布于5小时和56分钟前的05:00 UTC
预报有效从26日的 05点(UTC)到 27日的 11点(UTC)
风速6节,风向多变
能见度10公里或以上
散云层高于2000英尺
成为
从 26日的 06点(UTC)到 26日的 07点(UTC)
风速12节,风向东转东北
能见度10公里或以上
多云层高于1600英尺
附近有阵雨
成为
从 26日的 17点(UTC)到 26日的 18点(UTC)
风速15节,风向,有时为20节阵风
能见度10公里或以上
少量云层高于1600英尺
成为
从 26日的 23点(UTC)到 26日的 24点(UTC)
风速9节,风向东转东北
能见度10公里或以上
少量云层高于1500英尺
成为
从 27日的 05点(UTC)到 27日的 06点(UTC)
风速6节,风向东转东北
能见度10公里或以上
阴天层高于800英尺

TAF: KWRB 260500Z 2605/2711 VRB06KT 9999 SCT020 QNH2998INS BECMG 2606/2607 07012KT 9999 VCSH BKN016 QNH3003INS BECMG 2617/2618 08015G20KT 9999 NSW FEW016 QNH2996INS BECMG 2623/2624 07009KT 9999 FEW015 510013 QNH2998INS BECMG 2705/2706 06006KT 9999 OVC008 QNH2994INS TX23/2620Z TN19/2702Z

超过4000个机场的气象观测和天气预报(METAR&TAF报告)。

可查询的气象台以黄色和红色小点在地图上表示。

将鼠标移到小点上方,可查看气象台名称。

然后点击查看天气观测和预报。

如需切换地图:点击带黑十字的绿色按钮放大地图;点击带横线的绿色按钮缩小地图;或者点击绿色箭头查看邻近地区的地图。


METAR-TAF: